sensor_id;sensor_type;location;lat;lon;timestamp;P1;durP1;ratioP1;P2;durP2;ratioP2
78860;SDS011;68211;45.774;15.892;2023-06-10T00:01:27;16.52;;;9.32;;
78860;SDS011;68211;45.774;15.892;2023-06-10T00:03:53;21.50;;;9.40;;
78860;SDS011;68211;45.774;15.892;2023-06-10T00:06:21;16.35;;;9.65;;
78860;SDS011;68211;45.774;15.892;2023-06-10T00:08:48;20.20;;;9.13;;
78860;SDS011;68211;45.774;15.892;2023-06-10T00:11:14;13.20;;;8.98;;
78860;SDS011;68211;45.774;15.892;2023-06-10T00:13:41;14.30;;;9.63;;
78860;SDS011;68211;45.774;15.892;2023-06-10T00:16:07;14.90;;;9.65;;
78860;SDS011;68211;45.774;15.892;2023-06-10T00:18:34;13.85;;;9.82;;
78860;SDS011;68211;45.774;15.892;2023-06-10T00:21:00;14.50;;;9.77;;
78860;SDS011;68211;45.774;15.892;2023-06-10T00:23:28;17.02;;;9.90;;
78860;SDS011;68211;45.774;15.892;2023-06-10T00:25:54;14.00;;;9.60;;
78860;SDS011;68211;45.774;15.892;2023-06-10T00:28:21;11.10;;;9.30;;
78860;SDS011;68211;45.774;15.892;2023-06-10T00:30:47;14.40;;;9.07;;
78860;SDS011;68211;45.774;15.892;2023-06-10T00:33:14;11.43;;;8.60;;
78860;SDS011;68211;45.774;15.892;2023-06-10T00:35:40;13.60;;;9.43;;
78860;SDS011;68211;45.774;15.892;2023-06-10T00:38:07;12.23;;;8.27;;
78860;SDS011;68211;45.774;15.892;2023-06-10T00:40:35;13.70;;;9.23;;
78860;SDS011;68211;45.774;15.892;2023-06-10T00:43:05;13.40;;;8.60;;
78860;SDS011;68211;45.774;15.892;2023-06-10T00:45:31;15.00;;;9.15;;
78860;SDS011;68211;45.774;15.892;2023-06-10T00:47:58;14.10;;;8.88;;
78860;SDS011;68211;45.774;15.892;2023-06-10T00:50:24;15.27;;;9.00;;
78860;SDS011;68211;45.774;15.892;2023-06-10T00:52:51;13.80;;;9.45;;
78860;SDS011;68211;45.774;15.892;2023-06-10T00:55:21;12.70;;;8.43;;
78860;SDS011;68211;45.774;15.892;2023-06-10T00:57:48;17.98;;;9.30;;
78860;SDS011;68211;45.774;15.892;2023-06-10T01:00:16;12.60;;;8.93;;
78860;SDS011;68211;45.774;15.892;2023-06-10T01:02:42;14.52;;;9.07;;
78860;SDS011;68211;45.774;15.892;2023-06-10T01:05:09;15.77;;;8.75;;
78860;SDS011;68211;45.774;15.892;2023-06-10T01:07:37;13.73;;;8.05;;
78860;SDS011;68211;45.774;15.892;2023-06-10T01:10:05;10.88;;;8.38;;
78860;SDS011;68211;45.774;15.892;2023-06-10T01:12:39;14.80;;;7.63;;
78860;SDS011;68211;45.774;15.892;2023-06-10T01:15:08;14.02;;;7.93;;
78860;SDS011;68211;45.774;15.892;2023-06-10T01:17:37;11.65;;;7.63;;
78860;SDS011;68211;45.774;15.892;2023-06-10T01:20:04;10.52;;;7.68;;
78860;SDS011;68211;45.774;15.892;2023-06-10T01:22:32;13.05;;;8.77;;
78860;SDS011;68211;45.774;15.892;2023-06-10T01:24:58;11.27;;;7.90;;
78860;SDS011;68211;45.774;15.892;2023-06-10T01:27:26;12.70;;;7.72;;
78860;SDS011;68211;45.774;15.892;2023-06-10T01:29:54;12.80;;;8.70;;
78860;SDS011;68211;45.774;15.892;2023-06-10T01:32:27;11.65;;;7.63;;
78860;SDS011;68211;45.774;15.892;2023-06-10T01:34:54;12.77;;;7.88;;
78860;SDS011;68211;45.774;15.892;2023-06-10T01:37:22;12.02;;;7.95;;
78860;SDS011;68211;45.774;15.892;2023-06-10T01:39:50;10.43;;;8.13;;
78860;SDS011;68211;45.774;15.892;2023-06-10T01:42:17;9.90;;;7.78;;
78860;SDS011;68211;45.774;15.892;2023-06-10T01:44:43;12.70;;;7.40;;
78860;SDS011;68211;45.774;15.892;2023-06-10T01:47:10;9.85;;;7.70;;
78860;SDS011;68211;45.774;15.892;2023-06-10T01:49:36;10.73;;;7.10;;
78860;SDS011;68211;45.774;15.892;2023-06-10T01:52:03;8.65;;;7.53;;
78860;SDS011;68211;45.774;15.892;2023-06-10T01:54:30;18.13;;;7.75;;
78860;SDS011;68211;45.774;15.892;2023-06-10T01:56:58;9.57;;;7.18;;
78860;SDS011;68211;45.774;15.892;2023-06-10T01:59:24;12.27;;;7.75;;
78860;SDS011;68211;45.774;15.892;2023-06-10T02:01:50;9.02;;;7.10;;
78860;SDS011;68211;45.774;15.892;2023-06-10T02:04:17;10.80;;;7.30;;
78860;SDS011;68211;45.774;15.892;2023-06-10T02:06:43;11.07;;;6.97;;
78860;SDS011;68211;45.774;15.892;2023-06-10T02:09:10;11.93;;;6.70;;
78860;SDS011;68211;45.774;15.892;2023-06-10T02:11:36;7.90;;;6.93;;
78860;SDS011;68211;45.774;15.892;2023-06-10T02:14:04;9.48;;;6.80;;
78860;SDS011;68211;45.774;15.892;2023-06-10T02:16:31;9.13;;;6.75;;
78860;SDS011;68211;45.774;15.892;2023-06-10T02:18:57;10.02;;;6.60;;
78860;SDS011;68211;45.774;15.892;2023-06-10T02:21:24;7.45;;;6.28;;
78860;SDS011;68211;45.774;15.892;2023-06-10T02:23:50;7.05;;;6.35;;
78860;SDS011;68211;45.774;15.892;2023-06-10T02:26:17;11.93;;;5.82;;
78860;SDS011;68211;45.774;15.892;2023-06-10T02:28:43;9.88;;;7.00;;
78860;SDS011;68211;45.774;15.892;2023-06-10T02:31:11;14.63;;;6.22;;
78860;SDS011;68211;45.774;15.892;2023-06-10T02:33:37;8.30;;;5.97;;
78860;SDS011;68211;45.774;15.892;2023-06-10T02:36:04;9.05;;;6.35;;
78860;SDS011;68211;45.774;15.892;2023-06-10T02:38:30;9.50;;;6.32;;
78860;SDS011;68211;45.774;15.892;2023-06-10T02:40:57;10.23;;;6.10;;
78860;SDS011;68211;45.774;15.892;2023-06-10T02:43:23;11.98;;;6.20;;
78860;SDS011;68211;45.774;15.892;2023-06-10T02:45:50;9.65;;;6.38;;
78860;SDS011;68211;45.774;15.892;2023-06-10T02:48:18;11.80;;;6.32;;
78860;SDS011;68211;45.774;15.892;2023-06-10T02:50:45;10.18;;;5.95;;
78860;SDS011;68211;45.774;15.892;2023-06-10T02:53:12;9.05;;;6.60;;
78860;SDS011;68211;45.774;15.892;2023-06-10T02:55:38;10.50;;;6.22;;
78860;SDS011;68211;45.774;15.892;2023-06-10T02:58:04;6.35;;;5.75;;
78860;SDS011;68211;45.774;15.892;2023-06-10T03:00:31;7.80;;;5.93;;
78860;SDS011;68211;45.774;15.892;2023-06-10T03:02:58;8.05;;;6.53;;
78860;SDS011;68211;45.774;15.892;2023-06-10T03:05:26;8.23;;;6.07;;
78860;SDS011;68211;45.774;15.892;2023-06-10T03:07:52;7.45;;;6.65;;
78860;SDS011;68211;45.774;15.892;2023-06-10T03:10:18;9.63;;;6.15;;
78860;SDS011;68211;45.774;15.892;2023-06-10T03:12:45;6.75;;;6.10;;
78860;SDS011;68211;45.774;15.892;2023-06-10T03:15:11;8.15;;;6.28;;
78860;SDS011;68211;45.774;15.892;2023-06-10T03:17:38;9.63;;;6.82;;
78860;SDS011;68211;45.774;15.892;2023-06-10T03:20:05;8.90;;;6.60;;
78860;SDS011;68211;45.774;15.892;2023-06-10T03:22:33;14.02;;;7.07;;
78860;SDS011;68211;45.774;15.892;2023-06-10T03:25:00;8.70;;;6.60;;
78860;SDS011;68211;45.774;15.892;2023-06-10T03:27:26;12.30;;;7.65;;
78860;SDS011;68211;45.774;15.892;2023-06-10T03:29:55;9.35;;;6.90;;
78860;SDS011;68211;45.774;15.892;2023-06-10T03:32:22;9.70;;;7.20;;
78860;SDS011;68211;45.774;15.892;2023-06-10T03:34:48;14.00;;;7.43;;
78860;SDS011;68211;45.774;15.892;2023-06-10T03:37:15;17.02;;;7.43;;
78860;SDS011;68211;45.774;15.892;2023-06-10T03:39:42;13.68;;;7.75;;
78860;SDS011;68211;45.774;15.892;2023-06-10T03:42:09;11.18;;;7.35;;
78860;SDS011;68211;45.774;15.892;2023-06-10T03:44:35;10.57;;;7.30;;
78860;SDS011;68211;45.774;15.892;2023-06-10T03:47:02;11.52;;;6.60;;
78860;SDS011;68211;45.774;15.892;2023-06-10T03:49:28;7.72;;;6.50;;
78860;SDS011;68211;45.774;15.892;2023-06-10T03:51:55;10.30;;;6.65;;
78860;SDS011;68211;45.774;15.892;2023-06-10T03:54:21;7.88;;;6.68;;
78860;SDS011;68211;45.774;15.892;2023-06-10T03:56:49;8.35;;;6.30;;
78860;SDS011;68211;45.774;15.892;2023-06-10T03:59:16;12.10;;;6.65;;
78860;SDS011;68211;45.774;15.892;2023-06-10T04:01:42;16.58;;;6.75;;
78860;SDS011;68211;45.774;15.892;2023-06-10T04:04:09;9.57;;;6.30;;
78860;SDS011;68211;45.774;15.892;2023-06-10T04:06:35;9.73;;;5.97;;
78860;SDS011;68211;45.774;15.892;2023-06-10T04:09:01;11.35;;;6.38;;
78860;SDS011;68211;45.774;15.892;2023-06-10T04:11:28;8.52;;;6.18;;
78860;SDS011;68211;45.774;15.892;2023-06-10T04:13:56;9.18;;;6.65;;
78860;SDS011;68211;45.774;15.892;2023-06-10T04:16:22;12.48;;;6.60;;
78860;SDS011;68211;45.774;15.892;2023-06-10T04:18:49;7.05;;;5.78;;
78860;SDS011;68211;45.774;15.892;2023-06-10T04:21:15;9.85;;;6.57;;
78860;SDS011;68211;45.774;15.892;2023-06-10T04:23:42;10.90;;;6.43;;
78860;SDS011;68211;45.774;15.892;2023-06-10T04:26:08;7.80;;;6.15;;
78860;SDS011;68211;45.774;15.892;2023-06-10T04:28:35;8.10;;;6.22;;
78860;SDS011;68211;45.774;15.892;2023-06-10T04:31:02;9.48;;;6.03;;
78860;SDS011;68211;45.774;15.892;2023-06-10T04:33:29;11.55;;;6.30;;
78860;SDS011;68211;45.774;15.892;2023-06-10T04:35:55;9.20;;;6.13;;
78860;SDS011;68211;45.774;15.892;2023-06-10T04:38:22;9.48;;;6.28;;
78860;SDS011;68211;45.774;15.892;2023-06-10T04:40:48;8.50;;;6.53;;
78860;SDS011;68211;45.774;15.892;2023-06-10T04:43:15;12.20;;;6.07;;
78860;SDS011;68211;45.774;15.892;2023-06-10T04:45:41;8.88;;;6.00;;
78860;SDS011;68211;45.774;15.892;2023-06-10T04:48:09;8.07;;;6.47;;
78860;SDS011;68211;45.774;15.892;2023-06-10T04:50:36;11.45;;;6.43;;
78860;SDS011;68211;45.774;15.892;2023-06-10T04:53:02;10.45;;;6.75;;
78860;SDS011;68211;45.774;15.892;2023-06-10T04:55:29;10.10;;;6.53;;
78860;SDS011;68211;45.774;15.892;2023-06-10T04:57:55;14.85;;;6.97;;
78860;SDS011;68211;45.774;15.892;2023-06-10T05:00:22;11.18;;;6.32;;
78860;SDS011;68211;45.774;15.892;2023-06-10T05:02:48;8.45;;;6.45;;
78860;SDS011;68211;45.774;15.892;2023-06-10T05:05:16;10.68;;;6.95;;
78860;SDS011;68211;45.774;15.892;2023-06-10T05:07:43;10.93;;;7.10;;
78860;SDS011;68211;45.774;15.892;2023-06-10T05:10:10;8.18;;;7.15;;
78860;SDS011;68211;45.774;15.892;2023-06-10T05:12:36;9.02;;;6.60;;
78860;SDS011;68211;45.774;15.892;2023-06-10T05:15:03;12.13;;;7.10;;
78860;SDS011;68211;45.774;15.892;2023-06-10T05:17:29;14.32;;;6.85;;
78860;SDS011;68211;45.774;15.892;2023-06-10T05:19:56;9.68;;;7.40;;
78860;SDS011;68211;45.774;15.892;2023-06-10T05:22:24;12.65;;;6.80;;
78860;SDS011;68211;45.774;15.892;2023-06-10T05:24:50;8.80;;;6.68;;
78860;SDS011;68211;45.774;15.892;2023-06-10T05:27:16;9.48;;;6.82;;
78860;SDS011;68211;45.774;15.892;2023-06-10T05:29:43;10.45;;;6.75;;
78860;SDS011;68211;45.774;15.892;2023-06-10T05:32:09;11.10;;;6.72;;
78860;SDS011;68211;45.774;15.892;2023-06-10T05:34:36;10.57;;;6.78;;
78860;SDS011;68211;45.774;15.892;2023-06-10T05:37:03;10.23;;;6.88;;
78860;SDS011;68211;45.774;15.892;2023-06-10T05:39:31;12.80;;;6.70;;
78860;SDS011;68211;45.774;15.892;2023-06-10T05:41:57;9.15;;;6.75;;
78860;SDS011;68211;45.774;15.892;2023-06-10T05:44:23;11.80;;;6.75;;
78860;SDS011;68211;45.774;15.892;2023-06-10T05:46:50;11.85;;;6.82;;
78860;SDS011;68211;45.774;15.892;2023-06-10T05:49:16;7.93;;;6.35;;
78860;SDS011;68211;45.774;15.892;2023-06-10T05:51:43;10.95;;;6.63;;
78860;SDS011;68211;45.774;15.892;2023-06-10T05:54:09;12.70;;;7.07;;
78860;SDS011;68211;45.774;15.892;2023-06-10T05:56:37;18.15;;;6.53;;
78860;SDS011;68211;45.774;15.892;2023-06-10T05:59:04;11.73;;;7.18;;
78860;SDS011;68211;45.774;15.892;2023-06-10T06:01:30;16.17;;;6.78;;
78860;SDS011;68211;45.774;15.892;2023-06-10T06:03:57;19.85;;;7.13;;
78860;SDS011;68211;45.774;15.892;2023-06-10T06:06:24;15.15;;;6.90;;
78860;SDS011;68211;45.774;15.892;2023-06-10T06:08:50;18.38;;;7.50;;
78860;SDS011;68211;45.774;15.892;2023-06-10T06:11:16;17.30;;;7.00;;
78860;SDS011;68211;45.774;15.892;2023-06-10T06:13:44;13.48;;;8.02;;
78860;SDS011;68211;45.774;15.892;2023-06-10T06:16:11;11.35;;;7.53;;
78860;SDS011;68211;45.774;15.892;2023-06-10T06:18:37;12.80;;;7.10;;
78860;SDS011;68211;45.774;15.892;2023-06-10T06:21:04;17.23;;;8.45;;
78860;SDS011;68211;45.774;15.892;2023-06-10T06:23:31;11.60;;;7.80;;
78860;SDS011;68211;45.774;15.892;2023-06-10T06:25:57;11.05;;;7.47;;
78860;SDS011;68211;45.774;15.892;2023-06-10T06:28:24;17.27;;;8.20;;
78860;SDS011;68211;45.774;15.892;2023-06-10T06:30:51;10.27;;;7.63;;
78860;SDS011;68211;45.774;15.892;2023-06-10T06:33:18;16.63;;;8.35;;
78860;SDS011;68211;45.774;15.892;2023-06-10T06:35:44;13.48;;;8.50;;
78860;SDS011;68211;45.774;15.892;2023-06-10T06:38:11;13.25;;;8.00;;
78860;SDS011;68211;45.774;15.892;2023-06-10T06:40:37;11.38;;;7.80;;
78860;SDS011;68211;45.774;15.892;2023-06-10T06:43:04;20.75;;;8.02;;
78860;SDS011;68211;45.774;15.892;2023-06-10T06:45:30;19.10;;;9.00;;
78860;SDS011;68211;45.774;15.892;2023-06-10T06:47:58;15.90;;;9.18;;
78860;SDS011;68211;45.774;15.892;2023-06-10T06:50:25;17.58;;;10.18;;
78860;SDS011;68211;45.774;15.892;2023-06-10T06:52:51;12.93;;;9.45;;
78860;SDS011;68211;45.774;15.892;2023-06-10T06:55:17;14.63;;;9.98;;
78860;SDS011;68211;45.774;15.892;2023-06-10T06:57:44;17.35;;;9.48;;
78860;SDS011;68211;45.774;15.892;2023-06-10T07:00:11;14.90;;;9.57;;
78860;SDS011;68211;45.774;15.892;2023-06-10T07:02:37;14.38;;;9.55;;
78860;SDS011;68211;45.774;15.892;2023-06-10T07:05:05;16.73;;;10.05;;
78860;SDS011;68211;45.774;15.892;2023-06-10T07:07:32;19.37;;;10.83;;
78860;SDS011;68211;45.774;15.892;2023-06-10T07:09:59;17.23;;;10.85;;
78860;SDS011;68211;45.774;15.892;2023-06-10T07:12:25;19.77;;;10.43;;
78860;SDS011;68211;45.774;15.892;2023-06-10T07:14:52;16.17;;;11.20;;
78860;SDS011;68211;45.774;15.892;2023-06-10T07:17:18;14.25;;;10.05;;
78860;SDS011;68211;45.774;15.892;2023-06-10T07:19:45;18.13;;;11.20;;
78860;SDS011;68211;45.774;15.892;2023-06-10T07:22:14;16.70;;;10.73;;
78860;SDS011;68211;45.774;15.892;2023-06-10T07:24:40;17.30;;;11.07;;
78860;SDS011;68211;45.774;15.892;2023-06-10T07:27:07;19.38;;;10.77;;
78860;SDS011;68211;45.774;15.892;2023-06-10T07:29:33;17.02;;;10.93;;
78860;SDS011;68211;45.774;15.892;2023-06-10T07:32:00;19.85;;;10.52;;
78860;SDS011;68211;45.774;15.892;2023-06-10T07:34:26;17.75;;;12.05;;
78860;SDS011;68211;45.774;15.892;2023-06-10T07:36:52;19.13;;;11.77;;
78860;SDS011;68211;45.774;15.892;2023-06-10T07:39:20;15.77;;;10.65;;
78860;SDS011;68211;45.774;15.892;2023-06-10T07:41:47;18.65;;;11.18;;
78860;SDS011;68211;45.774;15.892;2023-06-10T07:44:17;16.58;;;11.95;;
78860;SDS011;68211;45.774;15.892;2023-06-10T07:46:44;21.60;;;12.07;;
78860;SDS011;68211;45.774;15.892;2023-06-10T07:49:11;20.65;;;11.98;;
78860;SDS011;68211;45.774;15.892;2023-06-10T07:51:38;17.55;;;11.40;;
78860;SDS011;68211;45.774;15.892;2023-06-10T07:54:04;16.30;;;11.77;;
78860;SDS011;68211;45.774;15.892;2023-06-10T07:56:32;21.02;;;12.77;;
78860;SDS011;68211;45.774;15.892;2023-06-10T07:59:01;24.30;;;12.77;;
78860;SDS011;68211;45.774;15.892;2023-06-10T08:01:30;16.25;;;11.80;;
78860;SDS011;68211;45.774;15.892;2023-06-10T08:03:57;16.52;;;11.38;;
78860;SDS011;68211;45.774;15.892;2023-06-10T08:06:24;18.42;;;11.43;;
78860;SDS011;68211;45.774;15.892;2023-06-10T08:08:50;18.55;;;13.20;;
78860;SDS011;68211;45.774;15.892;2023-06-10T08:11:17;24.77;;;12.82;;
78860;SDS011;68211;45.774;15.892;2023-06-10T08:13:45;20.63;;;12.25;;
78860;SDS011;68211;45.774;15.892;2023-06-10T08:16:14;20.00;;;11.15;;
78860;SDS011;68211;45.774;15.892;2023-06-10T08:18:40;23.90;;;12.85;;
78860;SDS011;68211;45.774;15.892;2023-06-10T08:21:07;23.88;;;12.95;;
78860;SDS011;68211;45.774;15.892;2023-06-10T08:23:34;20.90;;;12.15;;
78860;SDS011;68211;45.774;15.892;2023-06-10T08:26:00;17.00;;;12.88;;
78860;SDS011;68211;45.774;15.892;2023-06-10T08:28:27;17.58;;;13.30;;
78860;SDS011;68211;45.774;15.892;2023-06-10T08:30:55;25.92;;;13.32;;
78860;SDS011;68211;45.774;15.892;2023-06-10T08:33:25;19.05;;;13.23;;
78860;SDS011;68211;45.774;15.892;2023-06-10T08:36:06;20.73;;;12.82;;
78860;SDS011;68211;45.774;15.892;2023-06-10T08:38:35;22.73;;;11.93;;
78860;SDS011;68211;45.774;15.892;2023-06-10T08:41:04;22.85;;;12.20;;
78860;SDS011;68211;45.774;15.892;2023-06-10T08:43:34;21.05;;;11.70;;
78860;SDS011;68211;45.774;15.892;2023-06-10T08:46:04;21.50;;;11.82;;
78860;SDS011;68211;45.774;15.892;2023-06-10T08:48:34;14.35;;;10.63;;
78860;SDS011;68211;45.774;15.892;2023-06-10T08:51:01;15.23;;;11.07;;
78860;SDS011;68211;45.774;15.892;2023-06-10T08:53:30;16.75;;;10.40;;
78860;SDS011;68211;45.774;15.892;2023-06-10T08:55:58;17.67;;;11.18;;
78860;SDS011;68211;45.774;15.892;2023-06-10T08:58:27;17.42;;;10.88;;
78860;SDS011;68211;45.774;15.892;2023-06-10T09:00:54;17.60;;;11.18;;
78860;SDS011;68211;45.774;15.892;2023-06-10T09:03:22;15.98;;;11.07;;
78860;SDS011;68211;45.774;15.892;2023-06-10T09:05:49;24.40;;;12.85;;
78860;SDS011;68211;45.774;15.892;2023-06-10T09:08:16;27.77;;;16.60;;
78860;SDS011;68211;45.774;15.892;2023-06-10T09:10:43;32.35;;;18.27;;
78860;SDS011;68211;45.774;15.892;2023-06-10T09:13:09;24.25;;;17.02;;
78860;SDS011;68211;45.774;15.892;2023-06-10T09:15:36;25.77;;;16.60;;
78860;SDS011;68211;45.774;15.892;2023-06-10T09:18:02;26.08;;;15.73;;
78860;SDS011;68211;45.774;15.892;2023-06-10T09:20:30;26.95;;;16.95;;
78860;SDS011;68211;45.774;15.892;2023-06-10T09:22:57;23.50;;;15.95;;
78860;SDS011;68211;45.774;15.892;2023-06-10T09:25:33;24.00;;;16.88;;
78860;SDS011;68211;45.774;15.892;2023-06-10T09:28:00;26.90;;;15.65;;
78860;SDS011;68211;45.774;15.892;2023-06-10T09:30:27;28.17;;;15.77;;
78860;SDS011;68211;45.774;15.892;2023-06-10T09:32:54;24.83;;;13.68;;
78860;SDS011;68211;45.774;15.892;2023-06-10T09:35:21;18.30;;;13.68;;
78860;SDS011;68211;45.774;15.892;2023-06-10T09:37:51;19.25;;;14.10;;
78860;SDS011;68211;45.774;15.892;2023-06-10T09:40:17;19.58;;;14.45;;
78860;SDS011;68211;45.774;15.892;2023-06-10T09:42:44;23.40;;;13.50;;
78860;SDS011;68211;45.774;15.892;2023-06-10T09:45:10;19.95;;;11.68;;
78860;SDS011;68211;45.774;15.892;2023-06-10T09:47:37;17.15;;;11.68;;
78860;SDS011;68211;45.774;15.892;2023-06-10T09:50:04;20.75;;;13.45;;
78860;SDS011;68211;45.774;15.892;2023-06-10T09:55:01;18.35;;;14.02;;
78860;SDS011;68211;45.774;15.892;2023-06-10T09:57:30;33.28;;;15.23;;
78860;SDS011;68211;45.774;15.892;2023-06-10T09:59:57;22.55;;;14.45;;
78860;SDS011;68211;45.774;15.892;2023-06-10T10:02:23;29.45;;;14.38;;
78860;SDS011;68211;45.774;15.892;2023-06-10T10:04:50;25.88;;;14.02;;
78860;SDS011;68211;45.774;15.892;2023-06-10T10:07:16;26.15;;;14.15;;
78860;SDS011;68211;45.774;15.892;2023-06-10T10:09:43;21.50;;;13.15;;
78860;SDS011;68211;45.774;15.892;2023-06-10T10:12:11;16.88;;;11.98;;
78860;SDS011;68211;45.774;15.892;2023-06-10T10:14:38;17.92;;;13.40;;
78860;SDS011;68211;45.774;15.892;2023-06-10T10:17:07;11.85;;;9.98;;
78860;SDS011;68211;45.774;15.892;2023-06-10T10:19:36;15.73;;;10.98;;
78860;SDS011;68211;45.774;15.892;2023-06-10T10:22:04;25.10;;;13.25;;
78860;SDS011;68211;45.774;15.892;2023-06-10T10:24:36;22.85;;;12.55;;
78860;SDS011;68211;45.774;15.892;2023-06-10T10:27:04;21.90;;;11.95;;
78860;SDS011;68211;45.774;15.892;2023-06-10T10:29:37;21.48;;;11.98;;
78860;SDS011;68211;45.774;15.892;2023-06-10T10:35:01;22.08;;;13.57;;
78860;SDS011;68211;45.774;15.892;2023-06-10T10:37:29;16.35;;;11.52;;
78860;SDS011;68211;45.774;15.892;2023-06-10T10:39:56;18.85;;;11.52;;
78860;SDS011;68211;45.774;15.892;2023-06-10T10:42:22;21.38;;;12.50;;
78860;SDS011;68211;45.774;15.892;2023-06-10T10:44:51;27.27;;;13.65;;
78860;SDS011;68211;45.774;15.892;2023-06-10T10:47:18;18.83;;;12.93;;
78860;SDS011;68211;45.774;15.892;2023-06-10T10:49:47;18.90;;;11.40;;
78860;SDS011;68211;45.774;15.892;2023-06-10T10:52:15;15.13;;;11.82;;
78860;SDS011;68211;45.774;15.892;2023-06-10T10:54:43;12.68;;;9.90;;
78860;SDS011;68211;45.774;15.892;2023-06-10T10:57:10;12.17;;;8.10;;
78860;SDS011;68211;45.774;15.892;2023-06-10T10:59:43;11.13;;;7.68;;
78860;SDS011;68211;45.774;15.892;2023-06-10T11:02:11;12.23;;;7.72;;
78860;SDS011;68211;45.774;15.892;2023-06-10T11:04:44;11.55;;;7.95;;
78860;SDS011;68211;45.774;15.892;2023-06-10T11:07:10;13.00;;;8.57;;
78860;SDS011;68211;45.774;15.892;2023-06-10T11:09:37;12.73;;;9.73;;
78860;SDS011;68211;45.774;15.892;2023-06-10T11:12:04;16.70;;;11.15;;
78860;SDS011;68211;45.774;15.892;2023-06-10T11:14:31;19.58;;;11.60;;
78860;SDS011;68211;45.774;15.892;2023-06-10T11:16:58;19.88;;;10.93;;
78860;SDS011;68211;45.774;15.892;2023-06-10T11:19:33;15.88;;;11.95;;
78860;SDS011;68211;45.774;15.892;2023-06-10T11:22:00;11.00;;;8.43;;
78860;SDS011;68211;45.774;15.892;2023-06-10T11:24:28;16.17;;;9.18;;
78860;SDS011;68211;45.774;15.892;2023-06-10T11:27:00;12.52;;;9.02;;
78860;SDS011;68211;45.774;15.892;2023-06-10T11:29:44;13.73;;;11.02;;
78860;SDS011;68211;45.774;15.892;2023-06-10T11:32:20;19.45;;;11.43;;
78860;SDS011;68211;45.774;15.892;2023-06-10T11:34:52;12.65;;;9.95;;
78860;SDS011;68211;45.774;15.892;2023-06-10T11:37:19;14.60;;;10.82;;
78860;SDS011;68211;45.774;15.892;2023-06-10T11:39:46;18.48;;;11.43;;
78860;SDS011;68211;45.774;15.892;2023-06-10T11:42:12;15.95;;;9.93;;
78860;SDS011;68211;45.774;15.892;2023-06-10T11:44:39;18.48;;;9.63;;
78860;SDS011;68211;45.774;15.892;2023-06-10T11:47:13;12.48;;;9.18;;
78860;SDS011;68211;45.774;15.892;2023-06-10T11:49:39;12.93;;;9.75;;
78860;SDS011;68211;45.774;15.892;2023-06-10T11:52:10;12.27;;;9.23;;
78860;SDS011;68211;45.774;15.892;2023-06-10T11:54:37;9.63;;;8.50;;
78860;SDS011;68211;45.774;15.892;2023-06-10T11:57:03;10.27;;;8.55;;
78860;SDS011;68211;45.774;15.892;2023-06-10T11:59:30;13.13;;;8.02;;
78860;SDS011;68211;45.774;15.892;2023-06-10T12:01:57;8.45;;;7.50;;
78860;SDS011;68211;45.774;15.892;2023-06-10T12:04:23;12.55;;;6.95;;
78860;SDS011;68211;45.774;15.892;2023-06-10T12:06:50;11.02;;;7.55;;
78860;SDS011;68211;45.774;15.892;2023-06-10T12:09:19;16.00;;;7.60;;
78860;SDS011;68211;45.774;15.892;2023-06-10T12:11:53;11.85;;;7.38;;
78860;SDS011;68211;45.774;15.892;2023-06-10T12:17:05;10.63;;;7.03;;
78860;SDS011;68211;45.774;15.892;2023-06-10T12:19:31;12.15;;;7.45;;
78860;SDS011;68211;45.774;15.892;2023-06-10T12:22:06;8.65;;;7.75;;
78860;SDS011;68211;45.774;15.892;2023-06-10T12:24:34;10.50;;;7.38;;
78860;SDS011;68211;45.774;15.892;2023-06-10T12:27:10;9.60;;;8.00;;
78860;SDS011;68211;45.774;15.892;2023-06-10T12:29:37;9.65;;;8.18;;
78860;SDS011;68211;45.774;15.892;2023-06-10T12:32:04;12.32;;;7.93;;
78860;SDS011;68211;45.774;15.892;2023-06-10T12:34:31;14.63;;;7.80;;
78860;SDS011;68211;45.774;15.892;2023-06-10T12:36:57;15.20;;;8.57;;
78860;SDS011;68211;45.774;15.892;2023-06-10T12:39:24;15.48;;;8.52;;
78860;SDS011;68211;45.774;15.892;2023-06-10T12:41:52;12.02;;;8.70;;
78860;SDS011;68211;45.774;15.892;2023-06-10T12:44:19;14.25;;;9.30;;
78860;SDS011;68211;45.774;15.892;2023-06-10T12:46:45;14.48;;;8.95;;
78860;SDS011;68211;45.774;15.892;2023-06-10T12:49:18;9.52;;;8.20;;
78860;SDS011;68211;45.774;15.892;2023-06-10T12:51:45;12.18;;;8.82;;
78860;SDS011;68211;45.774;15.892;2023-06-10T12:54:11;13.38;;;8.70;;
78860;SDS011;68211;45.774;15.892;2023-06-10T12:56:37;11.98;;;8.75;;
78860;SDS011;68211;45.774;15.892;2023-06-10T12:59:05;11.93;;;8.95;;
78860;SDS011;68211;45.774;15.892;2023-06-10T13:01:32;15.07;;;8.82;;
78860;SDS011;68211;45.774;15.892;2023-06-10T13:03:58;15.05;;;9.32;;
78860;SDS011;68211;45.774;15.892;2023-06-10T13:06:25;11.65;;;8.60;;
78860;SDS011;68211;45.774;15.892;2023-06-10T13:08:52;16.40;;;8.45;;
78860;SDS011;68211;45.774;15.892;2023-06-10T13:11:18;12.43;;;9.02;;
78860;SDS011;68211;45.774;15.892;2023-06-10T13:13:45;13.02;;;9.18;;
78860;SDS011;68211;45.774;15.892;2023-06-10T13:16:12;15.70;;;9.10;;
78860;SDS011;68211;45.774;15.892;2023-06-10T13:18:39;13.25;;;8.95;;
78860;SDS011;68211;45.774;15.892;2023-06-10T13:21:05;11.93;;;8.70;;
78860;SDS011;68211;45.774;15.892;2023-06-10T13:23:32;13.30;;;9.18;;
78860;SDS011;68211;45.774;15.892;2023-06-10T13:25:58;11.02;;;9.40;;
78860;SDS011;68211;45.774;15.892;2023-06-10T13:28:25;13.43;;;8.90;;
78860;SDS011;68211;45.774;15.892;2023-06-10T13:30:51;19.95;;;9.57;;
78860;SDS011;68211;45.774;15.892;2023-06-10T13:33:19;16.27;;;8.98;;
78860;SDS011;68211;45.774;15.892;2023-06-10T13:35:46;13.35;;;8.70;;
78860;SDS011;68211;45.774;15.892;2023-06-10T13:38:12;13.05;;;9.20;;
78860;SDS011;68211;45.774;15.892;2023-06-10T13:40:39;11.98;;;8.80;;
78860;SDS011;68211;45.774;15.892;2023-06-10T13:43:05;18.35;;;9.32;;
78860;SDS011;68211;45.774;15.892;2023-06-10T13:45:32;14.60;;;9.32;;
78860;SDS011;68211;45.774;15.892;2023-06-10T13:47:58;13.98;;;8.65;;
78860;SDS011;68211;45.774;15.892;2023-06-10T13:50:26;16.85;;;9.35;;
78860;SDS011;68211;45.774;15.892;2023-06-10T13:52:52;12.95;;;8.55;;
78860;SDS011;68211;45.774;15.892;2023-06-10T13:55:19;11.20;;;8.43;;
78860;SDS011;68211;45.774;15.892;2023-06-10T13:57:45;22.45;;;9.30;;
78860;SDS011;68211;45.774;15.892;2023-06-10T14:00:12;14.00;;;9.45;;
78860;SDS011;68211;45.774;15.892;2023-06-10T14:02:39;13.27;;;9.18;;
78860;SDS011;68211;45.774;15.892;2023-06-10T14:05:06;14.02;;;9.07;;
78860;SDS011;68211;45.774;15.892;2023-06-10T14:07:34;15.55;;;9.27;;
78860;SDS011;68211;45.774;15.892;2023-06-10T14:10:00;16.30;;;9.57;;
78860;SDS011;68211;45.774;15.892;2023-06-10T14:12:27;11.25;;;8.80;;
78860;SDS011;68211;45.774;15.892;2023-06-10T14:14:53;20.27;;;11.48;;
78860;SDS011;68211;45.774;15.892;2023-06-10T14:17:20;18.27;;;10.35;;
78860;SDS011;68211;45.774;15.892;2023-06-10T14:19:46;11.73;;;9.13;;
78860;SDS011;68211;45.774;15.892;2023-06-10T14:22:13;12.90;;;9.70;;
78860;SDS011;68211;45.774;15.892;2023-06-10T14:24:41;13.85;;;8.90;;
78860;SDS011;68211;45.774;15.892;2023-06-10T14:27:07;11.85;;;8.80;;
78860;SDS011;68211;45.774;15.892;2023-06-10T14:29:33;12.63;;;9.10;;